createdAt,value
2023-05-24T00:00:55.518Z,2.70
2023-05-24T00:03:41.090Z,2.35
2023-05-24T00:06:34.502Z,2.42
2023-05-24T00:09:19.967Z,2.83
2023-05-24T00:12:12.569Z,2.13
2023-05-24T00:17:50.610Z,2.45
2023-05-24T00:20:43.692Z,2.40
2023-05-24T00:23:36.540Z,2.55
2023-05-24T00:26:28.582Z,2.58
2023-05-24T00:29:20.580Z,2.80
2023-05-24T00:32:06.292Z,2.95
2023-05-24T00:34:58.610Z,2.97
2023-05-24T00:37:45.390Z,2.80
2023-05-24T00:40:37.583Z,3.15
2023-05-24T00:43:24.025Z,3.17
2023-05-24T00:46:25.611Z,2.72
2023-05-24T00:49:17.598Z,3.15
2023-05-24T00:52:03.254Z,3.03
2023-05-24T00:54:55.611Z,3.40
2023-05-24T00:57:47.677Z,3.00
2023-05-24T01:00:39.845Z,4.15
2023-05-24T01:03:35.877Z,3.65
2023-05-24T01:06:28.668Z,3.92
2023-05-24T01:09:32.762Z,3.80
2023-05-24T01:12:29.630Z,4.63
2023-05-24T01:15:54.452Z,3.72
2023-05-24T01:18:50.661Z,3.55
2023-05-24T01:22:02.656Z,4.07
2023-05-24T01:24:59.076Z,3.50
2023-05-24T01:27:53.530Z,3.60
2023-05-24T01:30:41.736Z,3.90
2023-05-24T01:33:33.685Z,3.97
2023-05-24T01:36:18.951Z,4.18
2023-05-24T01:39:12.688Z,3.90
2023-05-24T01:42:23.665Z,4.20
2023-05-24T01:45:24.683Z,3.55
2023-05-24T01:48:19.424Z,4.45
2023-05-24T01:51:14.814Z,3.30
2023-05-24T01:54:02.147Z,4.00
2023-05-24T01:56:55.718Z,4.47
2023-05-24T01:59:43.927Z,3.70
2023-05-24T02:02:35.803Z,3.70
2023-05-24T02:05:21.839Z,4.10
2023-05-24T02:08:13.722Z,3.80
2023-05-24T02:11:05.777Z,4.53
2023-05-24T02:13:51.137Z,3.47
2023-05-24T02:16:48.744Z,4.43
2023-05-24T02:19:43.724Z,3.78
2023-05-24T02:22:35.723Z,3.90
2023-05-24T02:25:21.105Z,4.30
2023-05-24T02:28:12.731Z,4.53
2023-05-24T02:31:04.831Z,3.83
2023-05-24T02:33:56.784Z,4.68
2023-05-24T02:36:48.747Z,4.05
2023-05-24T02:39:34.010Z,4.00
2023-05-24T02:42:25.835Z,4.50
2023-05-24T02:45:17.788Z,3.60
2023-05-24T02:48:09.901Z,4.45
2023-05-24T02:50:55.309Z,4.30
2023-05-24T02:53:49.789Z,3.58
2023-05-24T02:56:35.360Z,3.90
2023-05-24T02:59:27.798Z,3.85
2023-05-24T03:05:09.799Z,3.85
2023-05-24T03:07:55.312Z,3.90
2023-05-24T03:10:46.870Z,4.60
2023-05-24T03:13:32.321Z,4.43
2023-05-24T03:16:24.908Z,4.43
2023-05-24T03:19:16.878Z,4.15
2023-05-24T03:22:08.539Z,4.18
2023-05-24T03:25:00.890Z,3.97
2023-05-24T03:27:52.837Z,3.40
2023-05-24T03:30:44.947Z,4.07
2023-05-24T03:33:38.814Z,4.10
2023-05-24T03:36:32.848Z,4.60
2023-05-24T03:39:18.423Z,3.78
2023-05-24T03:42:10.892Z,3.75
2023-05-24T03:44:56.547Z,4.35
2023-05-24T03:47:48.860Z,5.30
2023-05-24T03:50:34.840Z,4.10
2023-05-24T03:53:28.884Z,4.28
2023-05-24T03:56:14.493Z,5.03
2023-05-24T03:59:10.897Z,5.00
2023-05-24T04:01:56.523Z,4.95
2023-05-24T04:04:48.999Z,4.72
2023-05-24T04:07:40.974Z,4.13
2023-05-24T04:10:32.936Z,4.67
2023-05-24T04:13:18.248Z,5.57
2023-05-24T04:16:11.015Z,4.50
2023-05-24T04:21:48.945Z,5.60
2023-05-24T04:24:34.120Z,4.72
2023-05-24T04:27:26.964Z,5.05
2023-05-24T04:30:12.553Z,4.85
2023-05-24T04:33:05.034Z,4.55
2023-05-24T04:35:52.650Z,4.32
2023-05-24T04:38:44.910Z,5.10
2023-05-24T04:41:38.937Z,4.95
2023-05-24T04:44:24.690Z,5.30
2023-05-24T04:47:16.992Z,5.60
2023-05-24T04:50:08.999Z,5.90
2023-05-24T04:52:54.460Z,5.25
2023-05-24T04:55:47.066Z,4.80
2023-05-24T04:58:33.284Z,5.15
2023-05-24T05:01:26.026Z,4.53
2023-05-24T05:04:17.965Z,4.85
2023-05-24T05:07:10.024Z,4.80
2023-05-24T05:10:02.997Z,5.40
2023-05-24T05:12:55.096Z,5.35
2023-05-24T05:15:41.594Z,4.90
2023-05-24T05:18:34.991Z,5.43
2023-05-24T05:21:20.590Z,5.07
2023-05-24T05:24:13.024Z,4.25
2023-05-24T05:26:58.266Z,4.20
2023-05-24T05:29:51.005Z,4.60
2023-05-24T05:32:43.236Z,5.15
2023-05-24T05:35:35.048Z,5.00
2023-05-24T05:38:20.508Z,5.93
2023-05-24T05:41:13.083Z,4.78
2023-05-24T05:44:05.083Z,6.70
2023-05-24T05:46:50.475Z,5.45
2023-05-24T05:49:43.060Z,6.20
2023-05-24T05:52:28.552Z,6.75
2023-05-24T05:55:21.079Z,6.32
2023-05-24T05:58:06.718Z,6.05
2023-05-24T06:00:59.086Z,5.65
2023-05-24T06:03:45.294Z,5.43
2023-05-24T06:06:38.104Z,6.93
2023-05-24T06:12:23.262Z,5.63
2023-05-24T06:15:16.100Z,5.13
2023-05-24T06:18:02.375Z,5.15
2023-05-24T06:20:56.149Z,4.78
2023-05-24T06:23:48.082Z,5.32
2023-05-24T06:26:33.196Z,5.90
2023-05-24T06:29:29.079Z,4.95
2023-05-24T06:32:14.522Z,5.35
2023-05-24T06:35:13.140Z,4.60
2023-05-24T06:37:58.684Z,4.45
2023-05-24T06:40:51.183Z,4.18
2023-05-24T06:43:36.499Z,4.20
2023-05-24T06:46:28.164Z,3.75
2023-05-24T06:49:13.810Z,4.97
2023-05-24T06:52:06.155Z,4.18
2023-05-24T06:54:59.184Z,4.53
2023-05-24T06:57:44.791Z,4.35
2023-05-24T07:00:37.247Z,4.50
2023-05-24T07:03:23.471Z,4.45
2023-05-24T07:06:16.178Z,4.82
2023-05-24T07:09:11.213Z,5.03
2023-05-24T07:11:56.414Z,4.10
2023-05-24T07:14:48.240Z,3.60
2023-05-24T07:17:33.662Z,4.30
2023-05-24T07:20:26.267Z,3.83
2023-05-24T07:26:04.240Z,3.17
2023-05-24T07:28:56.200Z,2.90
2023-05-24T07:31:41.774Z,2.97
2023-05-24T07:34:36.208Z,2.63
2023-05-24T07:37:24.090Z,3.30
2023-05-24T07:40:18.244Z,2.97
2023-05-24T07:43:10.260Z,2.90
2023-05-24T07:45:55.896Z,2.67
2023-05-24T07:48:48.242Z,2.20
2023-05-24T07:51:33.977Z,2.88
2023-05-24T07:54:26.255Z,2.33
2023-05-24T07:57:11.970Z,2.70
2023-05-24T08:00:04.305Z,2.70
2023-05-24T08:02:50.315Z,2.45
2023-05-24T08:05:42.491Z,2.63
2023-05-24T08:08:28.519Z,2.50
2023-05-24T08:11:21.284Z,2.78
2023-05-24T08:14:13.291Z,3.17
2023-05-24T08:17:00.928Z,2.70
2023-05-24T08:19:52.325Z,2.47
2023-05-24T08:22:44.299Z,1.70
2023-05-24T08:25:29.817Z,2.42
2023-05-24T08:28:23.393Z,1.75
2023-05-24T08:31:15.323Z,2.70
2023-05-24T08:34:09.313Z,2.15
2023-05-24T08:36:55.187Z,2.95
2023-05-24T08:39:47.339Z,3.10
2023-05-24T08:42:39.351Z,2.53
2023-05-24T08:45:33.358Z,2.30
2023-05-24T08:48:19.336Z,2.50
2023-05-24T08:51:12.357Z,2.47
2023-05-24T08:54:08.403Z,2.25
2023-05-24T08:57:00.385Z,2.42
2023-05-24T08:59:45.708Z,2.70
2023-05-24T09:02:39.404Z,2.75
2023-05-24T09:05:33.366Z,2.50
2023-05-24T09:08:27.384Z,2.60
2023-05-24T09:11:21.403Z,2.63
2023-05-24T09:14:14.473Z,2.70
2023-05-24T09:17:07.409Z,2.72
2023-05-24T09:19:59.430Z,2.60
2023-05-24T09:22:48.634Z,2.22
2023-05-24T09:25:40.422Z,3.38
2023-05-24T09:28:26.014Z,2.53
2023-05-24T09:31:18.551Z,3.22
2023-05-24T09:36:59.406Z,2.90
2023-05-24T09:39:54.499Z,2.67
2023-05-24T09:42:40.030Z,2.22
2023-05-24T09:45:33.438Z,3.10
2023-05-24T09:48:27.442Z,3.00
2023-05-24T09:51:20.477Z,3.25
2023-05-24T09:54:05.996Z,2.83
2023-05-24T09:56:58.491Z,2.60
2023-05-24T09:59:44.827Z,2.50
2023-05-24T10:02:51.556Z,2.63
2023-05-24T10:05:45.750Z,2.10
2023-05-24T10:08:40.556Z,2.42
2023-05-24T10:11:26.785Z,2.50
2023-05-24T10:14:19.458Z,3.03
2023-05-24T10:17:06.939Z,2.35
2023-05-24T10:19:59.521Z,2.17
2023-05-24T10:22:46.805Z,2.30
2023-05-24T10:25:41.483Z,2.13
2023-05-24T10:28:34.530Z,2.58
2023-05-24T10:31:28.127Z,2.20
2023-05-24T10:34:20.533Z,2.30
2023-05-24T10:37:06.462Z,2.45
2023-05-24T10:39:58.561Z,2.20
2023-05-24T10:42:45.183Z,2.35
2023-05-24T10:45:43.593Z,2.95
2023-05-24T10:48:29.345Z,2.90
2023-05-24T10:51:43.537Z,3.50
2023-05-24T10:54:29.168Z,2.90
2023-05-24T10:57:29.636Z,2.83
2023-05-24T11:00:33.709Z,2.33
2023-05-24T11:03:31.561Z,3.25
2023-05-24T11:06:18.082Z,2.83
2023-05-24T11:09:09.594Z,4.40
2023-05-24T11:12:03.545Z,3.70
2023-05-24T11:14:51.304Z,2.88
2023-05-24T11:18:19.646Z,2.88
2023-05-24T11:21:06.589Z,2.60
2023-05-24T11:23:58.623Z,2.95
2023-05-24T11:26:51.703Z,2.95
2023-05-24T11:29:45.138Z,2.90
2023-05-24T11:32:38.633Z,2.38
2023-05-24T11:35:28.165Z,2.58
2023-05-24T11:38:24.122Z,2.28
2023-05-24T11:41:11.050Z,2.70
2023-05-24T11:44:03.646Z,2.45
2023-05-24T11:46:48.940Z,2.70
2023-05-24T11:49:41.631Z,2.53
2023-05-24T11:52:27.312Z,2.65
2023-05-24T11:55:20.613Z,2.80
2023-05-24T11:58:11.919Z,2.83
2023-05-24T12:01:03.651Z,2.97
2023-05-24T12:03:55.922Z,2.33
2023-05-24T12:06:44.982Z,2.97
2023-05-24T12:09:36.678Z,2.60
2023-05-24T12:12:30.300Z,2.72
2023-05-24T12:15:25.657Z,2.63
2023-05-24T12:18:27.683Z,2.42
2023-05-24T12:21:19.669Z,2.45
2023-05-24T12:24:16.667Z,2.88
2023-05-24T12:27:07.611Z,2.70
2023-05-24T12:30:06.703Z,1.93
2023-05-24T12:32:54.341Z,2.72
2023-05-24T12:35:49.694Z,2.50
2023-05-24T12:38:41.689Z,2.00
2023-05-24T12:41:37.688Z,2.40
2023-05-24T12:44:51.742Z,2.10
2023-05-24T12:47:37.198Z,2.28
2023-05-24T12:50:33.716Z,2.72
2023-05-24T12:53:26.743Z,2.20
2023-05-24T12:56:12.389Z,3.40
2023-05-24T12:59:04.735Z,3.53
2023-05-24T13:01:58.765Z,2.90
2023-05-24T13:04:44.204Z,2.60
2023-05-24T13:07:36.916Z,2.65
2023-05-24T13:10:30.822Z,2.67
2023-05-24T13:13:16.060Z,2.17
2023-05-24T13:16:07.855Z,3.15
2023-05-24T13:18:53.260Z,2.58
2023-05-24T13:21:45.800Z,2.40
2023-05-24T13:24:37.865Z,2.45
2023-05-24T13:27:29.764Z,2.25
2023-05-24T13:30:23.838Z,2.65
2023-05-24T13:33:16.966Z,2.78
2023-05-24T13:36:02.758Z,2.50
2023-05-24T13:39:12.808Z,2.38
2023-05-24T13:42:07.822Z,2.17
2023-05-24T13:45:01.802Z,2.22
2023-05-24T13:47:47.447Z,2.25
2023-05-24T13:50:40.942Z,1.88
2023-05-24T13:53:33.819Z,2.05
2023-05-24T13:59:11.822Z,2.30
2023-05-24T14:02:03.874Z,2.30
2023-05-24T14:07:41.938Z,2.35
2023-05-24T14:10:27.682Z,2.33
2023-05-24T14:16:09.610Z,2.75
2023-05-24T14:19:01.867Z,2.42
2023-05-24T14:21:53.888Z,2.00
2023-05-24T14:24:45.866Z,2.58
2023-05-24T14:27:37.912Z,1.90
2023-05-24T14:30:29.871Z,2.50
2023-05-24T14:33:15.450Z,2.30
2023-05-24T14:36:06.899Z,2.67
2023-05-24T14:38:52.177Z,2.60
2023-05-24T14:41:43.970Z,2.38
2023-05-24T14:44:29.620Z,2.17
2023-05-24T14:47:21.915Z,1.70
2023-05-24T14:50:07.928Z,1.90
2023-05-24T14:53:07.945Z,1.80
2023-05-24T14:56:00.929Z,2.15
2023-05-24T14:58:46.443Z,2.00
2023-05-24T15:01:38.011Z,2.17
2023-05-24T15:04:29.967Z,2.00
2023-05-24T15:07:16.072Z,1.90
2023-05-24T15:10:07.944Z,2.03
2023-05-24T15:12:53.048Z,2.00
2023-05-24T15:15:44.976Z,2.28
2023-05-24T15:18:31.705Z,1.98
2023-05-24T15:21:23.981Z,1.90
2023-05-24T15:24:09.396Z,1.80
2023-05-24T15:27:01.998Z,2.03
2023-05-24T15:32:39.557Z,1.88
2023-05-24T15:35:31.951Z,1.90
2023-05-24T15:38:25.012Z,2.08
2023-05-24T15:41:10.497Z,2.00
2023-05-24T15:44:02.990Z,1.85
2023-05-24T15:49:46.980Z,1.90
2023-05-24T15:52:33.201Z,1.58
2023-05-24T15:55:25.009Z,1.48
2023-05-24T15:58:13.373Z,1.90
2023-05-24T16:01:06.166Z,1.98
2023-05-24T16:03:51.621Z,1.90
2023-05-24T16:06:44.017Z,1.92
2023-05-24T16:09:29.305Z,1.80
2023-05-24T16:12:21.046Z,1.80
2023-05-24T16:15:14.035Z,1.50
2023-05-24T16:17:59.607Z,2.60
2023-05-24T16:20:56.030Z,2.15
2023-05-24T16:23:41.319Z,2.10
2023-05-24T16:26:37.467Z,2.05
2023-05-24T16:29:23.346Z,1.88
2023-05-24T16:32:16.188Z,1.80
2023-05-24T16:35:01.763Z,2.20
2023-05-24T16:37:55.127Z,2.40
2023-05-24T16:40:42.451Z,2.30
2023-05-24T16:43:34.103Z,2.30
2023-05-24T16:46:26.141Z,2.55
2023-05-24T16:49:18.080Z,2.08
2023-05-24T16:52:03.533Z,1.75
2023-05-24T16:54:55.072Z,2.30
2023-05-24T16:57:40.800Z,1.92
2023-05-24T17:00:33.152Z,2.15
2023-05-24T17:03:28.563Z,1.90
2023-05-24T17:06:21.226Z,1.80
2023-05-24T17:09:06.774Z,2.28
2023-05-24T17:11:58.144Z,2.03
2023-05-24T17:14:44.072Z,1.88
2023-05-24T17:17:36.166Z,1.70
2023-05-24T17:20:21.789Z,1.67
2023-05-24T17:23:14.195Z,2.25
2023-05-24T17:26:02.416Z,1.83
2023-05-24T17:28:54.256Z,2.10
2023-05-24T17:31:39.539Z,1.70
2023-05-24T17:34:32.199Z,2.30
2023-05-24T17:37:17.632Z,2.30
2023-05-24T17:40:10.170Z,2.00
2023-05-24T17:42:55.444Z,2.10
2023-05-24T17:45:47.220Z,2.00
2023-05-24T17:48:40.237Z,2.13
2023-05-24T17:51:26.005Z,2.20
2023-05-24T17:54:18.208Z,2.80
2023-05-24T17:59:55.454Z,2.35
2023-05-24T18:02:48.222Z,2.20
2023-05-24T18:08:25.293Z,2.83
2023-05-24T18:11:19.289Z,1.85
2023-05-24T18:14:04.726Z,2.22
2023-05-24T18:16:58.466Z,2.30
2023-05-24T18:19:51.288Z,2.00
2023-05-24T18:22:44.368Z,2.42
2023-05-24T18:25:29.965Z,2.28
2023-05-24T18:28:22.301Z,2.00
2023-05-24T18:31:22.331Z,2.55
2023-05-24T18:34:07.962Z,2.50
2023-05-24T18:37:01.345Z,2.75
2023-05-24T18:39:47.082Z,3.25
2023-05-24T18:42:39.274Z,2.53
2023-05-24T18:45:24.787Z,2.55
2023-05-24T18:48:16.330Z,2.55
2023-05-24T18:51:01.881Z,2.88
2023-05-24T18:53:55.331Z,2.63
2023-05-24T18:56:42.274Z,2.22
2023-05-24T18:59:49.316Z,3.15
2023-05-24T19:02:49.428Z,2.97
2023-05-24T19:05:35.083Z,2.05
2023-05-24T19:08:27.323Z,2.25
2023-05-24T19:11:12.832Z,2.63
2023-05-24T19:14:05.361Z,2.65
2023-05-24T19:16:50.840Z,2.17
2023-05-24T19:19:42.512Z,2.45
2023-05-24T19:22:28.347Z,2.42
2023-05-24T19:25:20.332Z,2.53
2023-05-24T19:28:12.367Z,2.50
2023-05-24T19:31:07.411Z,2.30
2023-05-24T19:34:00.850Z,2.40
2023-05-24T19:36:47.051Z,2.50
2023-05-24T19:39:39.426Z,2.45
2023-05-24T19:42:31.368Z,2.40
2023-05-24T19:45:23.431Z,2.33
2023-05-24T19:48:16.461Z,2.40
2023-05-24T19:51:08.418Z,1.77
2023-05-24T19:54:00.360Z,2.50
2023-05-24T19:56:49.818Z,2.00
2023-05-24T19:59:41.376Z,2.15
2023-05-24T20:02:35.626Z,2.10
2023-05-24T20:05:22.342Z,2.30
2023-05-24T20:08:14.482Z,2.63
2023-05-24T20:11:00.107Z,2.35
2023-05-24T20:13:52.436Z,2.20
2023-05-24T20:16:38.380Z,2.45
2023-05-24T20:19:30.445Z,2.00
2023-05-24T20:22:16.920Z,2.80
2023-05-24T20:25:09.457Z,2.45
2023-05-24T20:28:01.470Z,2.00
2023-05-24T20:30:46.897Z,2.25
2023-05-24T20:33:40.459Z,2.25
2023-05-24T20:36:33.445Z,2.75
2023-05-24T20:39:18.658Z,2.20
2023-05-24T20:42:10.448Z,2.33
2023-05-24T20:45:10.478Z,2.67
2023-05-24T20:47:56.135Z,2.13
2023-05-24T20:50:47.491Z,2.63
2023-05-24T20:53:32.725Z,2.22
2023-05-24T20:56:24.431Z,2.50
2023-05-24T20:59:10.102Z,3.00
2023-05-24T21:02:02.578Z,2.80
2023-05-24T21:04:54.497Z,2.53
2023-05-24T21:07:39.765Z,2.50
2023-05-24T21:10:34.559Z,2.08
2023-05-24T21:13:21.413Z,2.30
2023-05-24T21:16:13.564Z,2.70
2023-05-24T21:19:01.956Z,2.50
2023-05-24T21:21:53.504Z,2.70
2023-05-24T21:24:38.933Z,2.33
2023-05-24T21:27:31.529Z,2.30
2023-05-24T21:30:23.542Z,2.45
2023-05-24T21:33:15.603Z,2.30
2023-05-24T21:36:09.571Z,2.08
2023-05-24T21:39:03.579Z,2.00
2023-05-24T21:41:49.174Z,2.10
2023-05-24T21:44:41.619Z,1.90
2023-05-24T21:47:27.187Z,2.38
2023-05-24T21:50:19.565Z,2.25
2023-05-24T21:53:05.053Z,2.28
2023-05-24T21:56:03.611Z,2.40
2023-05-24T21:58:48.809Z,2.30
2023-05-24T22:01:40.670Z,2.47
2023-05-24T22:04:32.575Z,2.30
2023-05-24T22:07:18.018Z,2.28
2023-05-24T22:10:11.590Z,2.33
2023-05-24T22:13:03.589Z,2.50
2023-05-24T22:15:55.654Z,2.60
2023-05-24T22:18:47.646Z,2.25
2023-05-24T22:21:39.621Z,2.10
2023-05-24T22:24:31.612Z,2.10
2023-05-24T22:27:17.011Z,2.08
2023-05-24T22:30:09.607Z,2.22
2023-05-24T22:32:56.278Z,2.20
2023-05-24T22:35:48.590Z,1.98
2023-05-24T22:38:34.124Z,2.50
2023-05-24T22:41:26.717Z,2.42
2023-05-24T22:44:12.037Z,2.22
2023-05-24T22:47:03.627Z,2.65
2023-05-24T22:50:00.635Z,2.47
2023-05-24T22:52:46.597Z,2.38
2023-05-24T22:55:38.656Z,2.28
2023-05-24T22:58:31.678Z,2.55
2023-05-24T23:01:17.245Z,2.30
2023-05-24T23:04:20.662Z,2.50
2023-05-24T23:07:13.648Z,2.50
2023-05-24T23:09:59.809Z,2.43
2023-05-24T23:12:52.664Z,2.90
2023-05-24T23:15:45.949Z,2.65
2023-05-24T23:18:39.659Z,2.40
2023-05-24T23:21:25.676Z,3.00
2023-05-24T23:24:22.765Z,2.78
2023-05-24T23:27:15.693Z,2.67
2023-05-24T23:30:07.681Z,2.40
2023-05-24T23:32:53.135Z,2.42
2023-05-24T23:35:45.911Z,2.67
2023-05-24T23:38:31.409Z,2.50
2023-05-24T23:41:22.757Z,2.40
2023-05-24T23:44:14.713Z,2.40
2023-05-24T23:47:00.138Z,2.40
2023-05-24T23:49:51.726Z,2.35
2023-05-24T23:52:43.767Z,2.60
2023-05-24T23:55:35.765Z,2.38
2023-05-24T23:58:27.730Z,2.30
